Time;durP1;ratioP1;P1;durP2;ratioP2;P2;SDS_P1;SDS_P2;PMS_P1;PMS_P2;Temp;Humidity;BMP_temperature;BMP_pressure;BME280_temperature;BME280_humidity;BME280_pressure;Samples;Min_cycle;Max_cycle;Signal;HPM_P1;HPM_P2
2022/06/02 00:02:28;;;;;;;11.52;9.05;;;10.30;99.90;;;;;;5055918;28;20336;-69
2022/06/02 00:04:54;;;;;;;14.13;9.10;;;10.30;99.90;;;;;;5056080;28;20045;-69
2022/06/02 00:07:30;;;;;;;10.25;9.13;;;10.30;99.90;;;;;;5056298;28;20492;-69
2022/06/02 00:10:05;;;;;;;10.02;8.50;;;10.20;99.90;;;;;;5016734;28;20108;-69
2022/06/02 00:12:36;;;;;;;9.88;8.52;;;10.20;99.90;;;;;;5016922;28;20392;-69
2022/06/02 00:15:05;;;;;;;10.13;8.15;;;10.10;99.90;;;;;;5016434;28;20127;-69
2022/06/02 00:17:49;;;;;;;9.77;8.70;;;10.10;99.90;;;;;;5016500;28;20456;-69
2022/06/02 00:20:20;;;;;;;13.10;9.63;;;10.10;99.90;;;;;;5016816;28;20435;-69
2022/06/02 00:23:11;;;;;;;9.65;8.65;;;10.00;99.90;;;;;;5025879;28;20033;-69
2022/06/02 00:25:49;;;;;;;11.55;9.77;;;10.00;99.90;;;;;;5055716;28;20060;-69
2022/06/02 00:28:39;;;;;;;11.63;9.80;;;9.90;99.90;;;;;;5056072;28;20118;-69
2022/06/02 00:31:31;;;;;;;11.48;10.25;;;9.90;99.90;;;;;;5056081;28;20055;-70
2022/06/02 00:34:16;;;;;;;11.43;10.23;;;9.80;99.90;;;;;;5055821;28;20049;-69
2022/06/02 00:36:45;;;;;;;;;;;9.80;99.90;;;;;;5056327;28;20101;-69
2022/06/02 00:39:15;;;;;;;12.77;8.85;;;9.80;99.90;;;;;;5053949;28;19920;-69
2022/06/02 00:41:51;;;;;;;11.55;9.15;;;9.80;99.90;;;;;;5055786;28;20073;-69
2022/06/02 00:44:49;;;;;;;13.90;9.20;;;9.70;99.90;;;;;;5055410;28;20056;-70
2022/06/02 00:47:46;;;;;;;12.25;9.40;;;9.70;99.90;;;;;;4997277;28;20056;-69
2022/06/02 00:50:39;;;;;;;14.90;10.07;;;9.70;99.90;;;;;;5035533;28;20033;-70
2022/06/02 00:53:29;;;;;;;12.27;10.10;;;9.60;99.90;;;;;;5045383;28;20051;-69
2022/06/02 00:59:31;;;;;;;12.85;10.27;;;9.60;99.90;;;;;;5055414;28;20056;-69
2022/06/02 01:01:57;;;;;;;12.43;9.55;;;9.60;99.90;;;;;;5055634;28;20136;-69
2022/06/02 01:04:22;;;;;;;10.02;8.90;;;9.60;99.90;;;;;;5054496;28;20411;-69
2022/06/02 01:07:13;;;;;;;10.52;9.43;;;9.50;99.90;;;;;;5054480;28;20505;-69
2022/06/02 01:09:47;;;;;;;12.05;9.20;;;9.50;99.90;;;;;;5041758;28;20053;-69
2022/06/02 01:12:44;;;;;;;10.73;9.57;;;9.50;99.90;;;;;;5055273;28;20107;-69
2022/06/02 01:15:30;;;;;;;11.75;9.48;;;9.50;99.90;;;;;;5055202;28;20068;-68
2022/06/02 01:18:22;;;;;;;11.40;9.80;;;9.50;99.90;;;;;;5048927;28;20131;-69
2022/06/02 01:21:04;;;;;;;11.82;9.15;;;9.40;99.90;;;;;;5034982;28;20060;-69
2022/06/02 01:23:46;;;;;;;13.60;9.60;;;9.40;99.90;;;;;;5035321;28;20057;-69
2022/06/02 01:26:27;;;;;;;10.38;8.98;;;9.40;99.90;;;;;;5034891;28;20037;-69
2022/06/02 01:28:59;;;;;;;11.85;9.20;;;9.40;99.90;;;;;;5034325;28;20054;-69
2022/06/02 01:31:51;;;;;;;13.40;9.45;;;9.40;99.90;;;;;;5035017;28;20448;-69
2022/06/02 01:34:26;;;;;;;10.32;8.35;;;9.40;99.90;;;;;;5051608;28;20136;-69
2022/06/02 01:37:09;;;;;;;8.90;8.00;;;9.40;99.90;;;;;;5055231;28;20451;-70
2022/06/02 01:40:00;;;;;;;9.82;8.82;;;9.40;99.90;;;;;;5055041;28;20410;-69
2022/06/02 01:42:32;;;;;;;11.07;8.50;;;9.40;99.90;;;;;;5054500;28;20044;-69
2022/06/02 01:45:04;;;;;;;11.15;9.00;;;9.30;99.90;;;;;;5054326;28;20064;-69
2022/06/02 01:47:40;;;;;;;10.60;9.43;;;9.30;99.90;;;;;;5051264;28;20084;-69
2022/06/02 01:50:31;;;;;;;11.40;8.90;;;9.30;99.90;;;;;;5035058;28;20121;-69
2022/06/02 01:53:18;;;;;;;9.77;8.23;;;9.30;99.90;;;;;;5034555;28;20128;-69
2022/06/02 01:56:02;;;;;;;12.65;9.45;;;9.30;99.90;;;;;;5034889;28;20060;-69
2022/06/02 01:58:50;;;;;;;12.63;9.63;;;9.20;99.90;;;;;;5034959;28;20053;-70
2022/06/02 02:01:42;;;;;;;11.77;9.57;;;9.30;99.90;;;;;;5034889;28;20505;-69
2022/06/02 02:04:25;;;;;;;11.65;8.80;;;9.20;99.90;;;;;;5053718;28;20040;-69
2022/06/02 02:06:56;;;;;;;13.27;9.32;;;9.20;99.90;;;;;;5055037;28;20045;-69
2022/06/02 02:09:48;;;;;;;11.45;9.30;;;9.20;99.90;;;;;;5053449;28;20053;-69
2022/06/02 02:12:32;;;;;;;11.48;8.95;;;9.20;99.90;;;;;;5054604;28;20044;-70
2022/06/02 02:15:27;;;;;;;12.68;8.80;;;9.20;99.90;;;;;;5054611;28;20124;-69
2022/06/02 02:18:25;;;;;;;10.38;9.20;;;9.20;99.90;;;;;;5036978;28;20367;-69
2022/06/02 02:21:03;;;;;;;10.10;9.05;;;9.10;99.90;;;;;;5034413;28;20362;-69
2022/06/02 02:23:47;;;;;;;10.23;9.02;;;9.10;99.90;;;;;;5034640;28;20103;-69
2022/06/02 02:26:24;;;;;;;10.75;9.43;;;9.00;99.90;;;;;;5034407;28;20085;-70
2022/06/02 02:29:00;;;;;;;15.25;9.30;;;9.00;99.90;;;;;;5034524;28;20419;-69
2022/06/02 02:31:26;;;;;;;12.07;8.77;;;9.00;99.90;;;;;;5040414;28;20049;-69
2022/06/02 02:34:28;;;;;;;11.05;8.98;;;9.00;99.90;;;;;;5032185;28;20053;-69
2022/06/02 02:37:09;;;;;;;13.00;8.90;;;9.00;99.90;;;;;;5014358;28;20507;-69
2022/06/02 02:39:43;;;;;;;12.40;9.50;;;8.90;99.90;;;;;;5014676;28;20058;-69
2022/06/02 02:42:22;;;;;;;10.45;8.50;;;8.90;99.90;;;;;;5014221;28;20057;-69
2022/06/02 02:45:16;;;;;;;11.32;8.75;;;9.00;99.90;;;;;;5014528;28;20049;-69
2022/06/02 02:48:08;;;;;;;10.57;8.85;;;9.00;99.90;;;;;;5051067;28;20041;-69
2022/06/02 02:51:03;;;;;;;9.90;8.75;;;9.00;99.90;;;;;;5003561;28;20060;-69
2022/06/02 02:53:53;;;;;;;10.52;9.43;;;9.00;99.90;;;;;;5053610;28;20518;-69
2022/06/02 02:56:27;;;;;;;9.40;8.40;;;9.00;99.90;;;;;;5054195;28;20056;-69
2022/06/02 02:59:02;;;;;;;9.80;8.80;;;8.90;99.90;;;;;;5053004;28;20037;-69
2022/06/02 03:01:57;;;;;;;12.00;9.25;;;9.00;99.90;;;;;;5054081;28;20040;-70
2022/06/02 03:04:58;;;;;;;12.63;8.93;;;8.90;99.90;;;;;;5054497;28;20090;-69
2022/06/02 03:07:24;;;;;;;12.27;9.27;;;8.80;99.90;;;;;;5054215;28;20041;-69
2022/06/02 03:10:04;;;;;;;10.70;8.35;;;8.80;99.90;;;;;;5054257;28;20040;-69
2022/06/02 03:12:42;;;;;;;10.27;8.80;;;8.80;99.90;;;;;;5056511;28;20136;-69
2022/06/02 03:15:22;;;;;;;9.82;8.82;;;8.80;99.90;;;;;;5056754;28;20045;-69
2022/06/02 03:18:06;;;;;;;10.27;8.38;;;8.80;99.90;;;;;;5057722;28;20374;-69
2022/06/02 03:20:43;;;;;;;8.85;7.97;;;8.80;99.90;;;;;;5057335;28;20464;-69
2022/06/02 03:23:35;;;;;;;9.10;8.13;;;8.80;99.90;;;;;;5057630;28;20064;-69
2022/06/02 03:26:30;;;;;;;11.38;7.90;;;8.80;99.90;;;;;;5057481;28;20426;-69
2022/06/02 03:29:17;;;;;;;10.70;9.43;;;8.80;99.90;;;;;;5017719;28;20131;-68
2022/06/02 03:32:04;;;;;;;15.98;9.63;;;8.80;99.90;;;;;;5057584;28;20369;-69
2022/06/02 03:34:52;;;;;;;13.30;8.45;;;8.80;99.90;;;;;;5057275;28;20498;-68
2022/06/02 03:37:48;;;;;;;11.00;7.85;;;8.90;99.90;;;;;;5057028;28;20140;-69
2022/06/02 03:40:30;;;;;;;9.15;8.20;;;8.90;99.90;;;;;;5057398;28;20447;-69
2022/06/02 03:43:28;;;;;;;10.77;8.40;;;8.90;99.90;;;;;;5055288;28;20636;-69
2022/06/02 03:46:02;;;;;;;10.63;7.85;;;8.90;99.90;;;;;;4967552;28;20058;-69
2022/06/02 03:48:46;;;;;;;;;;;8.90;99.90;;;;;;5057759;28;20088;-69
2022/06/02 03:51:49;;;;;;;9.73;7.28;;;9.00;99.90;;;;;;5057237;28;20278;-69
2022/06/02 03:54:52;;;;;;;11.43;8.30;;;9.00;99.90;;;;;;5056621;28;20517;-69
2022/06/02 03:57:33;;;;;;;9.50;7.63;;;9.00;99.90;;;;;;5056905;28;20052;-69
2022/06/02 04:00:08;;;;;;;12.30;7.47;;;9.00;99.90;;;;;;5016862;28;20091;-69
2022/06/02 04:02:50;;;;;;;7.90;6.72;;;9.00;99.90;;;;;;5017414;28;20041;-68
2022/06/02 04:05:36;;;;;;;11.02;7.25;;;9.00;99.90;;;;;;5017378;28;20058;-68
2022/06/02 04:08:35;;;;;;;11.13;6.85;;;9.10;99.90;;;;;;5016473;28;20487;-69
2022/06/02 04:13:37;;;;;;;11.02;6.78;;;9.10;99.90;;;;;;5027081;28;20047;-69
2022/06/02 04:14:27;;;;;;;10.32;6.80;;;9.20;99.90;;;;;;5055969;28;20057;-69
2022/06/02 04:17:16;;;;;;;7.95;6.82;;;9.20;99.90;;;;;;5056534;28;20493;-69
2022/06/02 04:22:54;;;;;;;7.30;6.22;;;9.20;99.90;;;;;;5052989;28;20045;-69
2022/06/02 04:25:34;;;;;;;7.78;6.15;;;9.30;99.90;;;;;;5056033;28;20131;-69
2022/06/02 04:28:27;;;;;;;7.13;5.60;;;9.30;99.90;;;;;;5056549;28;20060;-69
2022/06/02 04:31:05;;;;;;;8.00;5.03;;;9.40;99.90;;;;;;5056367;28;20353;-69
2022/06/02 04:33:35;;;;;;;6.05;4.97;;;9.40;99.90;;;;;;5055564;28;20375;-69
2022/06/02 04:36:25;;;;;;;10.30;5.90;;;9.50;99.90;;;;;;5056123;28;20116;-69
2022/06/02 04:39:15;;;;;;;9.00;5.40;;;9.50;99.90;;;;;;5022574;28;20468;-69
2022/06/02 04:41:51;;;;;;;7.22;5.22;;;9.50;99.90;;;;;;5016265;28;20101;-69
2022/06/02 04:44:35;;;;;;;8.30;5.70;;;9.60;99.90;;;;;;5015487;28;20049;-69
2022/06/02 04:47:10;;;;;;;7.93;5.25;;;9.60;99.90;;;;;;5030450;28;20547;-69
2022/06/02 04:50:20;;;;;;;5.30;4.75;;;9.70;99.90;;;;;;5032924;28;20073;-69
2022/06/02 04:53:09;;;;;;;9.40;5.22;;;9.70;99.90;;;;;;5016857;28;20138;-69
2022/06/02 04:56:08;;;;;;;5.95;4.63;;;9.80;99.90;;;;;;5016412;28;20045;-69
2022/06/02 04:59:00;;;;;;;7.15;4.65;;;9.80;99.90;;;;;;5015686;28;20053;-68
2022/06/02 05:01:30;;;;;;;8.35;4.82;;;9.90;99.90;;;;;;5028616;28;20067;-69
2022/06/02 05:04:33;;;;;;;7.82;5.18;;;9.90;99.90;;;;;;5025524;28;20103;-69
2022/06/02 05:07:26;;;;;;;5.50;4.25;;;10.00;99.90;;;;;;5015586;28;20478;-69
2022/06/02 05:10:06;;;;;;;5.55;4.55;;;10.10;99.90;;;;;;5015445;28;20511;-70
2022/06/02 05:12:37;;;;;;;8.23;4.47;;;10.10;99.90;;;;;;5015807;28;20052;-69
2022/06/02 05:15:24;;;;;;;5.75;4.43;;;10.20;99.90;;;;;;5043151;28;20044;-70
2022/06/02 05:18:18;;;;;;;4.60;4.10;;;10.40;99.90;;;;;;5041106;28;20051;-67
2022/06/02 05:20:55;;;;;;;5.93;4.40;;;10.40;99.90;;;;;;5017718;28;20049;-68
2022/06/02 05:23:35;;;;;;;6.70;4.32;;;10.50;99.90;;;;;;5042348;28;20070;-69
2022/06/02 05:26:18;;;;;;;5.97;4.25;;;10.60;99.90;;;;;;5055107;28;20045;-67
2022/06/02 05:29:05;;;;;;;6.22;4.60;;;10.70;99.90;;;;;;5054179;28;20045;-72
2022/06/02 05:32:12;;;;;;;6.43;4.50;;;10.70;99.90;;;;;;5054777;28;20098;-69
2022/06/02 05:35:28;;;;;;;5.93;4.32;;;10.90;99.90;;;;;;5039705;28;20052;-69
2022/06/02 05:38:13;;;;;;;6.50;4.50;;;11.00;99.90;;;;;;5022133;28;20048;-70
2022/06/02 05:41:09;;;;;;;7.43;5.15;;;11.00;99.90;;;;;;5054595;28;20085;-71
2022/06/02 05:43:55;;;;;;;8.18;4.18;;;11.10;99.90;;;;;;5031229;28;20050;-70
2022/06/02 05:46:29;;;;;;;4.93;3.40;;;11.20;99.90;;;;;;5042240;28;20132;-70
2022/06/02 05:49:08;;;;;;;6.20;3.70;;;11.30;99.90;;;;;;5050099;28;20378;-70
2022/06/02 05:51:48;;;;;;;5.15;3.70;;;11.30;99.90;;;;;;5066206;28;20072;-70
2022/06/02 05:54:39;;;;;;;5.18;3.50;;;11.50;99.90;;;;;;5075060;28;20198;-70
2022/06/02 05:57:31;;;;;;;6.50;3.40;;;11.50;99.90;;;;;;5073562;28;20049;-69
2022/06/02 06:00:11;;;;;;;4.95;2.80;;;11.60;99.90;;;;;;5009028;28;20121;-70
2022/06/02 06:03:08;;;;;;;3.00;2.65;;;11.70;99.90;;;;;;5074734;28;20581;-70
2022/06/02 06:05:42;;;;;;;3.40;3.10;;;11.80;99.90;;;;;;5074317;28;20477;-71
2022/06/02 06:08:19;;;;;;;5.93;2.60;;;11.80;99.90;;;;;;5074733;28;20135;-70
2022/06/02 06:10:50;;;;;;;3.33;2.35;;;11.70;99.90;;;;;;5073076;28;20060;-70
2022/06/02 06:13:37;;;;;;;5.32;2.97;;;11.60;99.90;;;;;;5074415;28;20051;-71
2022/06/02 06:16:23;;;;;;;3.05;2.38;;;11.60;99.90;;;;;;5074430;28;20070;-70
2022/06/02 06:18:51;;;;;;;4.80;2.30;;;11.60;99.90;;;;;;5074627;28;20045;-70
2022/06/02 06:21:41;;;;;;;3.63;2.40;;;11.60;99.90;;;;;;5074464;28;20432;-70
2022/06/02 06:24:54;;;;;;;3.15;2.13;;;11.60;99.90;;;;;;5074440;28;20458;-69
2022/06/02 06:27:42;;;;;;;6.50;2.88;;;11.70;99.90;;;;;;5074861;28;20056;-70
2022/06/02 06:30:08;;;;;;;6.72;3.20;;;11.80;99.90;;;;;;5074410;28;20048;-70
2022/06/02 06:32:38;;;;;;;7.88;3.03;;;12.00;99.90;;;;;;5073930;28;20040;-70
2022/06/02 06:35:14;;;;;;;8.32;3.20;;;12.10;99.90;;;;;;5072705;28;20045;-70
2022/06/02 06:37:45;;;;;;;6.82;2.60;;;12.20;99.90;;;;;;5074830;28;20123;-70
2022/06/02 06:40:33;;;;;;;4.45;2.60;;;12.20;99.90;;;;;;5074511;28;20458;-70
2022/06/02 06:43:18;;;;;;;3.97;2.47;;;12.40;99.90;;;;;;5074212;28;20045;-70
2022/06/02 06:45:50;;;;;;;5.65;2.60;;;12.50;99.90;;;;;;5074050;28;20098;-70
2022/06/02 06:48:30;;;;;;;5.90;2.60;;;12.60;99.90;;;;;;5076076;28;20095;-70
2022/06/02 06:51:03;;;;;;;3.38;2.22;;;12.60;99.90;;;;;;5078066;28;20098;-69
2022/06/02 06:54:01;;;;;;;6.82;2.65;;;12.80;99.90;;;;;;5077780;28;20084;-70
2022/06/02 06:56:41;;;;;;;6.80;2.60;;;12.90;99.90;;;;;;5077966;28;20044;-70
2022/06/02 06:59:26;;;;;;;5.13;2.88;;;13.00;99.90;;;;;;5078011;28;20064;-70
2022/06/02 07:02:01;;;;;;;4.35;2.80;;;13.10;99.90;;;;;;5061837;28;20059;-71
2022/06/02 07:04:35;;;;;;;4.68;2.67;;;13.10;99.90;;;;;;5057707;28;20099;-70
2022/06/02 07:07:19;;;;;;;4.72;1.90;;;13.10;99.90;;;;;;5058151;28;20037;-69
2022/06/02 07:10:10;;;;;;;5.25;2.55;;;13.10;99.90;;;;;;5057944;28;20045;-70
2022/06/02 07:12:50;;;;;;;7.40;3.63;;;12.90;99.90;;;;;;5053489;28;20127;-70
2022/06/02 07:15:23;;;;;;;9.02;3.38;;;13.00;99.90;;;;;;5057690;28;20049;-70
2022/06/02 07:18:15;;;;;;;4.22;2.50;;;13.30;99.90;;;;;;5057933;28;20060;-70
2022/06/02 07:20:53;;;;;;;8.07;3.25;;;13.40;99.90;;;;;;5057038;28;20382;-70
2022/06/02 07:23:40;;;;;;;6.55;2.65;;;13.30;99.90;;;;;;5057774;28;20056;-69
2022/06/02 07:26:26;;;;;;;4.40;2.63;;;13.30;99.90;;;;;;5055694;28;20433;-70
2022/06/02 07:29:00;;;;;;;5.55;2.80;;;13.20;99.90;;;;;;5057439;28;20417;-71
2022/06/02 07:32:02;;;;;;;3.58;2.63;;;13.40;99.90;;;;;;5057282;28;20044;-70
2022/06/02 07:35:06;;;;;;;4.07;2.67;;;13.50;99.90;;;;;;5057267;28;20052;-70
2022/06/02 07:37:34;;;;;;;5.88;2.60;;;13.40;99.90;;;;;;5056792;28;20494;-69
2022/06/02 07:40:20;;;;;;;4.05;2.83;;;13.40;99.90;;;;;;5058381;28;20048;-71
2022/06/02 07:43:17;;;;;;;5.55;2.67;;;13.40;99.90;;;;;;5076838;28;20040;-70
2022/06/02 07:45:50;;;;;;;5.03;2.50;;;13.50;99.90;;;;;;5076811;28;20040;-71
2022/06/02 07:48:40;;;;;;;3.80;2.47;;;13.60;99.90;;;;;;5076897;28;20064;-71
2022/06/02 07:51:41;;;;;;;3.35;2.75;;;13.50;99.90;;;;;;5077068;28;20083;-69
2022/06/02 07:54:28;;;;;;;6.30;2.95;;;13.60;99.90;;;;;;5076898;28;20091;-70
2022/06/02 07:57:17;;;;;;;3.63;2.70;;;13.60;99.90;;;;;;5068442;28;20382;-71
2022/06/02 07:59:47;;;;;;;5.95;2.30;;;13.60;99.90;;;;;;5059291;28;20553;-70
2022/06/02 08:02:41;;;;;;;7.45;2.67;;;13.70;99.90;;;;;;5076524;28;20399;-70
2022/06/02 08:05:35;;;;;;;5.18;2.30;;;13.90;99.90;;;;;;5076907;28;20348;-71
2022/06/02 08:08:08;;;;;;;6.13;2.80;;;14.00;99.90;;;;;;5031614;28;20052;-71
2022/06/02 08:10:33;;;;;;;7.43;2.53;;;13.90;99.90;;;;;;5075902;28;20106;-69
2022/06/02 08:13:17;;;;;;;5.07;2.22;;;13.70;99.90;;;;;;5075334;28;20615;-70
2022/06/02 08:16:07;;;;;;;4.05;2.58;;;13.70;99.90;;;;;;5076628;28;20049;-71
2022/06/02 08:18:41;;;;;;;3.40;2.25;;;13.90;99.90;;;;;;5076351;28;20045;-70
2022/06/02 08:21:27;;;;;;;6.05;3.30;;;14.00;99.90;;;;;;5076131;28;20490;-71
2022/06/02 08:24:07;;;;;;;6.22;2.88;;;14.00;99.90;;;;;;5073484;28;20063;-72
2022/06/02 08:26:33;;;;;;;5.38;3.00;;;14.10;99.90;;;;;;5071541;28;20045;-71
2022/06/02 08:29:21;;;;;;;4.93;2.33;;;14.10;99.90;;;;;;5056270;28;20475;-71
2022/06/02 08:32:03;;;;;;;5.57;3.03;;;14.10;99.90;;;;;;5056232;28;20070;-70
2022/06/02 08:34:40;;;;;;;4.22;2.80;;;14.00;99.90;;;;;;5055874;28;20553;-71
2022/06/02 08:37:33;;;;;;;4.68;2.60;;;14.00;99.90;;;;;;5056166;28;20037;-70
2022/06/02 08:40:17;;;;;;;2.55;2.33;;;14.10;99.90;;;;;;5055908;28;20049;-71
2022/06/02 08:43:01;;;;;;;3.42;2.40;;;14.30;99.90;;;;;;5074489;28;20127;-70
2022/06/02 08:45:46;;;;;;;3.95;2.65;;;14.40;99.90;;;;;;5075873;28;20083;-71
2022/06/02 08:48:47;;;;;;;4.38;2.85;;;14.50;99.90;;;;;;5075751;28;20056;-71
2022/06/02 08:51:46;;;;;;;9.05;2.80;;;14.60;99.90;;;;;;5075927;28;20051;-71
2022/06/02 08:54:43;;;;;;;4.60;2.90;;;14.50;99.90;;;;;;5075656;28;20055;-71
2022/06/02 08:57:20;;;;;;;5.43;2.85;;;14.50;99.90;;;;;;5073310;28;20097;-71
2022/06/02 09:00:27;;;;;;;3.25;2.70;;;14.50;99.90;;;;;;5075816;28;20073;-71
2022/06/02 09:03:09;;;;;;;5.07;2.50;;;14.50;99.90;;;;;;5074432;28;20052;-71
2022/06/02 09:05:59;;;;;;;4.65;2.10;;;14.30;99.90;;;;;;5075865;28;20044;-71
2022/06/02 09:08:52;;;;;;;6.45;2.90;;;14.40;99.90;;;;;;5075511;28;20139;-70
2022/06/02 09:11:29;;;;;;;6.65;2.50;;;14.60;99.90;;;;;;5074389;28;20119;-71
2022/06/02 09:14:13;;;;;;;3.72;2.20;;;14.90;99.90;;;;;;5075418;28;20090;-71
2022/06/02 09:16:54;;;;;;;4.47;2.40;;;14.90;99.90;;;;;;5075601;28;20051;-71
2022/06/02 09:19:34;;;;;;;3.47;2.10;;;14.70;99.90;;;;;;5075077;28;20052;-70
2022/06/02 09:22:10;;;;;;;3.72;2.35;;;14.80;99.90;;;;;;5075693;28;20465;-70
2022/06/02 09:25:10;;;;;;;3.72;2.45;;;15.10;99.90;;;;;;5074449;28;20056;-70
2022/06/02 09:28:13;;;;;;;4.00;2.03;;;15.20;99.90;;;;;;5035474;28;20379;-70
2022/06/02 09:31:12;;;;;;;5.07;2.33;;;15.00;99.90;;;;;;5035138;28;20052;-72
2022/06/02 09:34:07;;;;;;;2.30;1.60;;;15.00;99.90;;;;;;5035529;28;20052;-71
2022/06/02 09:36:52;;;;;;;;;;;14.90;99.90;;;;;;5062053;28;20127;-71
2022/06/02 09:39:39;;;;;;;3.97;2.35;;;15.00;99.90;;;;;;5075263;28;19977;-70
2022/06/02 09:42:05;;;;;;;3.05;2.22;;;15.20;99.90;;;;;;5074936;28;20088;-71
2022/06/02 09:44:53;;;;;;;3.35;2.30;;;15.50;99.90;;;;;;5074822;28;20083;-70
2022/06/02 09:47:39;;;;;;;2.83;2.42;;;15.60;99.90;;;;;;5074760;28;20454;-72
2022/06/02 09:50:38;;;;;;;8.32;2.97;;;15.50;99.90;;;;;;5072806;28;20040;-71
2022/06/02 09:53:25;;;;;;;4.05;2.95;;;15.20;99.90;;;;;;5075286;28;20382;-71
2022/06/02 09:56:28;;;;;;;7.22;2.90;;;15.30;99.90;;;;;;5054160;28;20045;-72
2022/06/02 09:59:33;;;;;;;5.63;2.33;;;15.30;99.90;;;;;;5054987;28;20049;-70
2022/06/02 10:02:10;;;;;;;3.37;2.37;;;15.30;99.90;;;;;;5053930;28;20080;-71
2022/06/02 10:04:54;;;;;;;5.30;2.53;;;15.20;99.90;;;;;;5055115;28;20059;-71
2022/06/02 10:07:35;;;;;;;11.00;2.97;;;15.00;99.90;;;;;;5054089;28;20128;-71
2022/06/02 10:10:26;;;;;;;3.38;2.20;;;15.20;99.90;;;;;;5054433;28;20060;-72
2022/06/02 10:13:08;;;;;;;3.33;2.35;;;15.40;99.90;;;;;;5054424;28;20044;-72
2022/06/02 10:15:44;;;;;;;5.13;2.40;;;15.50;99.90;;;;;;5054453;28;20045;-71
2022/06/02 10:18:27;;;;;;;3.95;2.20;;;15.50;99.90;;;;;;5071128;28;20049;-71
2022/06/02 10:21:29;;;;;;;3.78;2.70;;;15.40;99.90;;;;;;5076339;28;20040;-71
2022/06/02 10:24:17;;;;;;;4.50;2.22;;;15.50;99.90;;;;;;5078920;28;20053;-71
2022/06/02 10:27:07;;;;;;;2.30;2.00;;;15.60;99.90;;;;;;5078615;28;20084;-71
2022/06/02 10:30:00;;;;;;;2.90;2.05;;;15.70;99.90;;;;;;5077172;28;20070;-71
2022/06/02 10:32:57;;;;;;;5.70;2.10;;;15.40;99.90;;;;;;5077959;28;20037;-71
2022/06/02 10:35:51;;;;;;;4.40;3.05;;;15.30;99.90;;;;;;5078636;28;20141;-72
2022/06/02 10:38:48;;;;;;;6.03;2.83;;;15.60;99.90;;;;;;5078244;28;20583;-70
2022/06/02 10:41:49;;;;;;;4.45;2.63;;;15.60;99.90;;;;;;5077113;28;20478;-71
2022/06/02 10:44:15;;;;;;;4.15;2.03;;;15.50;99.90;;;;;;5077319;28;20087;-71
2022/06/02 10:47:08;;;;;;;4.13;2.75;;;15.40;99.90;;;;;;5077110;28;20455;-71
2022/06/02 10:49:36;;;;;;;5.38;2.38;;;15.40;99.90;;;;;;5057052;28;20055;-71
2022/06/02 10:52:39;;;;;;;2.42;2.20;;;15.40;99.90;;;;;;5075890;28;20040;-71
2022/06/02 10:55:33;;;;;;;3.42;2.10;;;15.70;99.90;;;;;;5078456;28;20048;-72
2022/06/02 10:58:13;;;;;;;6.88;2.50;;;15.80;99.90;;;;;;5077911;28;20045;-72
2022/06/02 11:01:06;;;;;;;6.15;2.63;;;15.70;99.90;;;;;;5075754;28;20072;-72
2022/06/02 11:04:08;;;;;;;4.18;2.80;;;15.70;99.90;;;;;;5077683;28;20075;-72
2022/06/02 11:06:55;;;;;;;5.30;2.60;;;15.80;99.90;;;;;;5078056;28;20405;-72
2022/06/02 11:09:39;;;;;;;4.07;2.35;;;16.00;99.90;;;;;;5078082;28;20366;-71
2022/06/02 11:12:41;;;;;;;3.40;2.25;;;16.20;99.90;;;;;;5077769;28;20052;-71
2022/06/02 11:15:15;;;;;;;6.32;2.30;;;16.20;99.90;;;;;;5064451;28;20053;-72
2022/06/02 11:17:50;;;;;;;4.85;2.40;;;16.10;99.90;;;;;;5057793;28;20041;-72
2022/06/02 11:20:53;;;;;;;3.05;2.05;;;16.00;99.90;;;;;;5057058;28;20071;-72
2022/06/02 11:23:45;;;;;;;5.53;2.55;;;16.30;99.90;;;;;;5057341;28;20084;-71
2022/06/02 11:26:16;;;;;;;3.80;2.30;;;16.90;99.90;;;;;;5052167;28;20048;-72
2022/06/02 11:29:14;;;;;;;4.90;2.30;;;16.80;99.90;;;;;;5061892;28;20048;-71
2022/06/02 11:32:11;;;;;;;4.70;2.60;;;16.70;99.90;;;;;;5065889;28;20033;-71
2022/06/02 11:34:45;;;;;;;4.32;2.08;;;16.80;99.90;;;;;;5056683;28;20091;-71
2022/06/02 11:37:26;;;;;;;2.75;2.10;;;16.90;99.90;;;;;;5057218;28;20045;-72
2022/06/02 11:40:26;;;;;;;4.70;2.42;;;17.30;99.90;;;;;;5057292;28;20098;-72
2022/06/02 11:43:14;;;;;;;126.47;16.90;;;17.20;99.90;;;;;;5056630;28;20475;-72
2022/06/02 11:46:10;;;;;;;4.07;2.50;;;17.20;99.90;;;;;;5059480;28;20370;-73
2022/06/02 11:49:00;;;;;;;5.38;2.40;;;17.20;99.90;;;;;;5077269;28;20149;-72
2022/06/02 11:51:56;;;;;;;3.45;2.25;;;17.20;99.90;;;;;;5077146;28;20091;-72
2022/06/02 11:54:33;;;;;;;5.50;2.42;;;16.70;99.90;;;;;;5077059;28;20059;-72
2022/06/02 11:57:07;;;;;;;6.05;2.83;;;16.70;99.90;;;;;;5060771;28;20094;-71
2022/06/02 11:59:51;;;;;;;;;;;17.00;99.90;;;;;;5057290;28;20048;-71
2022/06/02 12:02:49;;;;;;;3.38;1.92;;;17.60;99.90;;;;;;5056270;28;20269;-72
2022/06/02 12:05:36;;;;;;;5.07;2.35;;;18.10;99.90;;;;;;5042425;28;20088;-71
2022/06/02 12:08:20;;;;;;;4.57;2.20;;;17.80;99.90;;;;;;5056861;28;20033;-72
2022/06/02 12:11:10;;;;;;;4.97;2.33;;;18.10;99.90;;;;;;5063172;28;20113;-71
2022/06/02 12:13:47;;;;;;;2.63;1.83;;;18.30;99.90;;;;;;5059187;28;20080;-73
2022/06/02 12:16:24;;;;;;;6.82;2.70;;;18.60;99.90;;;;;;5076179;28;20044;-73
2022/06/02 12:19:21;;;;;;;3.55;2.22;;;19.10;99.90;;;;;;5075703;28;20051;-73
2022/06/02 12:22:30;;;;;;;4.53;2.22;;;19.60;99.90;;;;;;5058658;28;20170;-73
2022/06/02 12:25:14;;;;;;;6.07;2.63;;;19.90;99.90;;;;;;4967233;28;20533;-73
2022/06/02 12:27:54;;;;;;;3.00;2.25;;;19.90;99.90;;;;;;5068001;28;20473;-72
2022/06/02 12:30:41;;;;;;;3.92;2.35;;;19.30;99.90;;;;;;5036031;28;20055;-71
2022/06/02 12:33:50;;;;;;;4.40;1.90;;;19.80;99.90;;;;;;5036313;28;20056;-72
2022/06/02 12:36:33;;;;;;;3.22;1.80;;;19.90;99.90;;;;;;5036250;28;20071;-72
2022/06/02 12:39:01;;;;;;;7.38;2.42;;;20.10;99.90;;;;;;5036680;28;20045;-73
2022/06/02 12:41:45;;;;;;;3.78;2.22;;;19.70;99.90;;;;;;5068859;28;20084;-72
2022/06/02 12:44:43;;;;;;;4.13;2.20;;;19.30;99.90;;;;;;5074957;28;20037;-72
2022/06/02 12:47:40;;;;;;;2.50;1.95;;;19.40;99.90;;;;;;5075858;28;20036;-72
2022/06/02 12:50:30;;;;;;;5.40;2.50;;;19.60;99.90;;;;;;5075762;28;20048;-72
2022/06/02 12:53:17;;;;;;;4.93;2.17;;;20.00;99.90;;;;;;5073241;28;20115;-72
2022/06/02 12:55:54;;;;;;;3.10;2.10;;;19.70;99.90;;;;;;5074706;28;20037;-72
2022/06/02 12:58:49;;;;;;;7.05;2.50;;;20.30;99.90;;;;;;5075458;28;20128;-73
2022/06/02 13:01:39;;;;;;;2.83;2.28;;;21.00;99.90;;;;;;5075562;28;20055;-73
2022/06/02 13:04:25;;;;;;;4.07;2.28;;;22.10;99.90;;;;;;5075523;28;20052;-72
2022/06/02 13:07:31;;;;;;;5.22;2.25;;;22.30;99.90;;;;;;5075309;28;20048;-74
2022/06/02 13:09:59;;;;;;;3.42;2.45;;;21.90;99.90;;;;;;5005009;28;20068;-73
2022/06/02 13:12:43;;;;;;;4.47;2.22;;;21.80;99.90;;;;;;5035852;28;20092;-73
2022/06/02 13:15:27;;;;;;;;;;;21.50;99.90;;;;;;5035937;28;20042;-73
2022/06/02 13:18:25;;;;;;;4.25;1.90;;;22.20;99.90;;;;;;5035561;28;20282;-73
2022/06/02 13:21:29;;;;;;;3.45;2.17;;;22.60;99.90;;;;;;5011818;28;20049;-74
2022/06/02 13:24:32;;;;;;;2.70;1.88;;;22.60;99.90;;;;;;5069167;28;20052;-72
2022/06/02 13:27:09;;;;;;;5.40;2.28;;;22.50;99.90;;;;;;5075454;28;20378;-74
2022/06/02 13:30:02;;;;;;;3.15;2.03;;;23.10;99.90;;;;;;5075188;28;20048;-73
2022/06/02 13:32:28;;;;;;;3.50;2.03;;;23.70;99.90;;;;;;5074881;28;20462;-74
2022/06/02 13:35:17;;;;;;;4.40;1.90;;;22.60;99.90;;;;;;5075232;28;20058;-73
2022/06/02 13:38:21;;;;;;;5.15;2.30;;;22.70;99.90;;;;;;5073022;28;20051;-73
2022/06/02 13:41:04;;;;;;;5.78;1.85;;;23.70;99.90;;;;;;5075293;28;20055;-74
2022/06/02 13:43:49;;;;;;;4.35;1.67;;;24.80;97.70;;;;;;5074971;28;20120;-73
2022/06/02 13:46:37;;;;;;;4.93;2.63;;;24.50;96.40;;;;;;5074773;28;20157;-74
2022/06/02 13:49:21;;;;;;;3.00;1.77;;;24.80;98.30;;;;;;5075503;28;20048;-73
2022/06/02 13:52:27;;;;;;;4.97;2.55;;;24.80;97.60;;;;;;5073190;28;20181;-74
2022/06/02 13:58:22;;;;;;;4.97;1.98;;;25.60;92.00;;;;;;5035028;28;20053;-73
2022/06/02 14:01:09;;;;;;;3.70;1.75;;;25.10;91.50;;;;;;5034530;28;20045;-73
2022/06/02 14:04:12;;;;;;;3.70;2.15;;;25.30;95.80;;;;;;5053408;28;20067;-74
2022/06/02 14:06:49;;;;;;;3.50;1.98;;;26.70;93.40;;;;;;5054631;28;20429;-74
2022/06/02 14:09:23;;;;;;;2.38;1.75;;;26.80;88.60;;;;;;5053890;28;20132;-73
2022/06/02 14:12:00;;;;;;;2.70;2.25;;;26.80;81.10;;;;;;5054587;28;20099;-74
2022/06/02 14:14:48;;;;;;;2.85;1.98;;;27.80;88.50;;;;;;5054664;28;20124;-74
2022/06/02 14:17:26;;;;;;;4.78;2.20;;;28.80;81.60;;;;;;5054463;28;20084;-74
2022/06/02 14:20:16;;;;;;;5.18;1.98;;;29.50;78.90;;;;;;5054450;28;20041;-74
2022/06/02 14:23:07;;;;;;;4.28;2.22;;;28.80;69.90;;;;;;5053739;28;20052;-72
2022/06/02 14:26:01;;;;;;;3.90;2.22;;;28.20;75.00;;;;;;5054184;28;20487;-72
2022/06/02 14:28:48;;;;;;;3.72;2.17;;;28.80;72.00;;;;;;5054272;28;20060;-73
2022/06/02 14:31:25;;;;;;;4.63;2.05;;;28.80;71.70;;;;;;5054293;28;20140;-74
2022/06/02 14:34:02;;;;;;;2.97;1.77;;;29.80;71.90;;;;;;5054730;28;20406;-74